Time;durP1;ratioP1;P1;durP2;ratioP2;P2;SDS_P1;SDS_P2;PMS_P1;PMS_P2;Temp;Humidity;BMP_temperature;BMP_pressure;BME280_temperature;BME280_humidity;BME280_pressure;Samples;Min_cycle;Max_cycle;Signal;HPM_P1;HPM_P2
2022/08/10 00:00:19;;;;;;;1.67;1.20;;;;;;;24.15;37.99;101078.91;18428922;32;20467;-55
2022/08/10 00:09:52;;;;;;;2.05;1.10;;;;;;;24.06;38.36;101090.03;18428908;32;20436;-55
2022/08/10 00:19:56;;;;;;;3.58;1.05;;;;;;;24.01;38.64;101087.56;18431834;32;20101;-54
2022/08/10 00:30:12;;;;;;;2.78;1.17;;;;;;;23.84;39.13;101070.56;18429754;32;20105;-55
2022/08/10 00:40:16;;;;;;;2.67;1.30;;;;;;;23.74;39.18;101076.41;18430257;32;20493;-55
2022/08/10 00:50:37;;;;;;;2.72;1.15;;;;;;;23.64;39.93;101073.28;18430170;32;20179;-55
2022/08/10 01:00:42;;;;;;;3.55;1.20;;;;;;;23.84;39.26;101077.69;18430504;32;20108;-55
2022/08/10 01:10:53;;;;;;;2.28;1.27;;;;;;;23.82;39.61;101075.09;18428992;32;20364;-55
2022/08/10 01:21:18;;;;;;;2.57;1.30;;;;;;;23.76;39.75;101074.53;18428283;32;20086;-55
2022/08/10 01:31:26;;;;;;;3.33;1.10;;;;;;;23.93;39.61;101073.72;18427580;32;20162;-55
2022/08/10 01:41:32;;;;;;;1.80;1.10;;;;;;;23.69;39.98;101082.81;18425896;32;20123;-55
2022/08/10 01:51:51;;;;;;;2.83;1.30;;;;;;;23.51;40.79;101083.66;18435511;32;20186;-55
2022/08/10 02:01:57;;;;;;;3.42;1.50;;;;;;;23.34;41.36;101087.09;18435690;32;20135;-55
2022/08/10 02:12:05;;;;;;;3.83;1.42;;;;;;;23.41;41.26;101078.75;18435505;32;20457;-55
2022/08/10 02:22:11;;;;;;;1.98;1.23;;;;;;;23.22;41.93;101083.16;18434975;32;20107;-55
2022/08/10 02:32:36;;;;;;;2.78;1.48;;;;;;;23.47;41.55;101076.75;18435783;32;20456;-54
2022/08/10 02:42:45;;;;;;;2.50;1.30;;;;;;;23.24;41.98;101084.81;18434455;32;20176;-55
2022/08/10 02:53:13;;;;;;;1.92;1.30;;;;;;;22.96;42.91;101099.34;18443087;32;20124;-55
2022/08/10 03:03:40;;;;;;;3.97;1.30;;;;;;;22.93;42.70;101087.97;18435239;32;20176;-55
2022/08/10 03:13:45;;;;;;;2.67;1.35;;;;;;;23.07;42.53;101085.56;18433657;32;20093;-55
2022/08/10 03:24:02;;;;;;;3.83;1.95;;;;;;;23.17;42.36;101101.16;18433315;32;20377;-55
2022/08/10 03:34:27;;;;;;;4.97;1.62;;;;;;;22.93;42.87;101111.91;18433969;32;20117;-55
2022/08/10 03:44:36;;;;;;;1.87;1.27;;;;;;;22.76;43.53;101123.28;18432633;32;20162;-55
2022/08/10 03:54:41;;;;;;;4.25;1.48;;;;;;;22.65;43.85;101132.59;18432411;32;20363;-55
2022/08/10 04:04:44;;;;;;;3.55;1.33;;;;;;;23.04;42.33;101130.94;18432261;32;20092;-55
2022/08/10 04:14:49;;;;;;;4.20;1.30;;;;;;;22.96;42.82;101130.44;18431634;32;20097;-55
2022/08/10 04:24:59;;;;;;;3.28;1.30;;;;;;;24.27;40.10;101151.28;18432276;32;20085;-55
2022/08/10 04:35:05;;;;;;;3.75;1.42;;;;;;;25.14;37.99;101137.19;18431763;32;20097;-55
2022/08/10 04:45:10;;;;;;;3.70;1.30;;;;;;;24.99;38.32;101137.97;18430438;32;20485;-55
2022/08/10 04:55:15;;;;;;;2.22;1.05;;;;;;;24.65;38.71;101136.06;18429790;32;20088;-55
2022/08/10 05:05:19;;;;;;;18.75;2.22;;;;;;;24.32;39.17;101143.91;18428479;32;20109;-55
2022/08/10 05:15:23;;;;;;;3.30;1.33;;;;;;;24.08;39.78;101155.69;18439497;32;20115;-55
2022/08/10 05:25:26;;;;;;;3.12;1.10;;;;;;;24.45;38.99;101149.53;18447969;32;20081;-55
2022/08/10 05:35:32;;;;;;;2.47;1.20;;;;;;;24.44;38.88;101154.00;18436067;32;20116;-55
2022/08/10 05:45:55;;;;;;;2.92;1.00;;;;;;;24.73;37.70;101154.34;18436965;32;20116;-55
2022/08/10 05:56:20;;;;;;;3.72;1.30;;;;;;;24.82;38.20;101147.72;18436771;32;20107;-55
2022/08/10 06:06:23;;;;;;;3.75;1.20;;;;;;;25.26;36.98;101149.06;18435527;32;20093;-55
2022/08/10 06:16:29;;;;;;;2.30;1.20;;;;;;;25.66;36.34;101146.09;18434997;32;20111;-55
2022/08/10 06:26:33;;;;;;;2.22;1.20;;;;;;;26.38;34.42;101151.09;18435223;32;20380;-55
2022/08/10 06:36:38;;;;;;;2.70;1.08;;;;;;;26.41;35.16;101153.56;18434923;32;20472;-54
2022/08/10 06:46:45;;;;;;;2.78;1.08;;;;;;;25.88;35.35;101150.25;18434268;32;20110;-55
2022/08/10 06:56:53;;;;;;;3.08;0.95;;;;;;;25.87;34.75;101146.72;18434239;32;20088;-55
2022/08/10 07:07:18;;;;;;;2.87;1.00;;;;;;;27.14;33.22;101137.78;18493871;32;20106;-55
2022/08/10 07:17:25;;;;;;;2.28;1.00;;;;;;;27.72;31.84;101143.19;18493013;32;20116;-54
2022/08/10 07:27:29;;;;;;;4.07;1.35;;;;;;;28.15;30.46;101136.00;18496209;32;20139;-55
2022/08/10 07:37:54;;;;;;;2.42;1.27;;;;;;;28.13;30.20;101122.72;18496803;32;20086;-55
2022/08/10 07:48:00;;;;;;;1.65;1.02;;;;;;;28.14;30.55;101124.44;18496890;32;20463;-54
2022/08/10 07:58:11;;;;;;;2.00;1.08;;;;;;;28.87;28.70;101127.72;18496691;32;20115;-54
2022/08/10 08:08:15;;;;;;;1.85;1.20;;;;;;;28.35;29.27;101138.28;18496059;32;20098;-55
2022/08/10 08:18:21;;;;;;;1.25;0.90;;;;;;;28.90;29.39;101143.62;18496884;32;20092;-55
2022/08/10 08:28:28;;;;;;;3.30;0.90;;;;;;;29.28;27.99;101133.00;18494567;32;20455;-55
2022/08/10 08:38:33;;;;;;;2.53;1.67;;;;;;;28.87;28.18;101121.47;18492757;32;20115;-55
2022/08/10 08:49:06;;;;;;;10.25;1.95;;;;;;;28.91;28.10;101118.47;18494042;32;20080;-55
2022/08/10 08:59:23;;;;;;;2.08;0.93;;;;;;;28.92;27.62;101101.37;18492480;32;20105;-55
2022/08/10 09:09:42;;;;;;;2.42;1.00;;;;;;;29.49;26.19;101093.84;18353575;32;20449;-55
2022/08/10 09:19:51;;;;;;;1.95;0.60;;;;;;;30.91;25.05;101086.16;18367690;32;20080;-54
2022/08/10 09:29:56;;;;;;;1.13;0.63;;;;;;;31.00;25.11;101082.75;18486974;32;20088;-56
2022/08/10 09:40:08;;;;;;;1.87;0.90;;;;;;;30.76;26.17;101079.25;18490703;32;20111;-55
2022/08/10 09:50:36;;;;;;;2.75;0.80;;;;;;;30.07;25.76;101086.19;18492175;32;20444;-56
2022/08/10 10:01:11;;;;;;;2.05;0.88;;;;;;;30.32;25.37;101064.53;18490080;32;20100;-55
2022/08/10 10:11:41;;;;;;;1.40;0.70;;;;;;;31.14;24.13;101062.78;18499529;32;20104;-55
2022/08/10 10:21:50;;;;;;;1.02;0.70;;;;;;;31.37;22.73;101048.47;18497819;32;20096;-56
2022/08/10 10:32:02;;;;;;;3.22;0.70;;;;;;;32.55;23.08;101040.66;18499086;32;20092;-55
2022/08/10 10:42:14;;;;;;;2.50;0.77;;;;;;;31.81;20.43;101033.19;18498552;32;20469;-55
2022/08/10 10:52:45;;;;;;;1.25;0.57;;;;;;;33.25;21.60;101016.53;18499489;32;20097;-55
2022/08/10 11:03:04;;;;;;;1.00;0.60;;;;;;;32.33;19.30;101012.72;18498362;32;20081;-55
2022/08/10 11:13:20;;;;;;;1.67;0.40;;;;;;;33.59;19.11;101000.00;18463557;32;20175;-55
2022/08/10 11:23:49;;;;;;;1.85;0.70;;;;;;;31.22;19.36;100996.59;18407481;32;93744;-56
2022/08/10 11:34:17;;;;;;;2.17;0.73;;;;;;;32.17;20.24;100987.06;18417471;32;20096;-55
2022/08/10 11:44:47;;;;;;;1.02;0.50;;;;;;;30.78;21.58;100986.56;18433020;32;20120;-56
2022/08/10 11:54:53;;;;;;;1.77;0.65;;;;;;;32.87;18.61;100983.78;18427989;32;20080;-55
2022/08/10 12:05:01;;;;;;;1.12;0.57;;;;;;;33.15;18.93;100983.19;18432546;32;20362;-55
2022/08/10 12:15:11;;;;;;;1.93;0.80;;;;;;;33.01;17.54;100979.91;18432912;32;20100;-56
2022/08/10 12:25:20;;;;;;;1.00;0.40;;;;;;;32.71;18.52;100959.94;18430847;32;20081;-55
2022/08/10 12:35:50;;;;;;;0.83;0.30;;;;;;;33.44;17.60;100960.78;18431702;32;20089;-55
2022/08/10 12:46:18;;;;;;;2.47;0.63;;;;;;;33.93;16.05;100959.97;18464628;32;20181;-55
2022/08/10 12:56:25;;;;;;;2.37;0.47;;;;;;;33.68;15.67;100938.75;18494457;32;20456;-55
2022/08/10 13:06:30;;;;;;;1.05;0.50;;;;;;;34.15;16.74;100929.03;18493338;32;20731;-56
2022/08/10 13:16:34;;;;;;;1.37;0.85;;;;;;;32.95;18.18;100931.78;18493135;32;20097;-55
2022/08/10 13:26:43;;;;;;;2.40;0.82;;;;;;;33.66;16.83;100926.34;18490360;32;20093;-56
2022/08/10 13:37:09;;;;;;;1.50;0.60;;;;;;;33.86;16.90;100909.13;18493055;32;20448;-55
2022/08/10 13:47:17;;;;;;;1.85;0.52;;;;;;;33.17;17.62;100909.06;18500287;32;20076;-55
2022/08/10 13:57:25;;;;;;;2.00;0.52;;;;;;;32.67;17.69;100909.88;18500210;32;20103;-55
2022/08/10 14:07:32;;;;;;;1.08;0.55;;;;;;;32.29;17.98;100895.16;18500686;32;20113;-54
2022/08/10 14:17:37;;;;;;;0.85;0.60;;;;;;;32.39;18.56;100890.69;18498341;32;20136;-56
2022/08/10 14:27:49;;;;;;;0.68;0.47;;;;;;;32.98;17.73;100882.81;18488171;32;20147;-56
2022/08/10 14:38:09;;;;;;;0.90;0.73;;;;;;;31.76;19.05;100869.91;18453244;32;20404;-55
2022/08/10 14:48:17;;;;;;;1.83;0.65;;;;;;;31.75;18.42;100874.47;18469736;32;20124;-56
2022/08/10 14:58:25;;;;;;;1.67;0.77;;;;;;;31.83;19.26;100866.59;18391188;32;20085;-55
2022/08/10 15:08:31;;;;;;;1.45;0.80;;;;;;;32.31;18.34;100863.47;18488674;32;20103;-56
2022/08/10 15:18:42;;;;;;;0.60;0.57;;;;;;;31.30;18.77;100851.22;18469164;32;20103;-54
2022/08/10 15:29:04;;;;;;;1.15;0.50;;;;;;;32.55;17.73;100843.41;18475635;32;20093;-55
2022/08/10 15:39:31;;;;;;;1.77;0.57;;;;;;;31.76;18.38;100851.88;18496110;32;20162;-55
2022/08/10 15:50:00;;;;;;;1.85;0.70;;;;;;;30.95;19.18;100845.06;18478156;32;20488;-56
2022/08/10 16:00:07;;;;;;;0.97;0.60;;;;;;;31.94;19.06;100838.69;18475038;32;20549;-56
2022/08/10 16:10:15;;;;;;;1.15;0.70;;;;;;;30.08;20.33;100845.69;18433702;32;20108;-56
2022/08/10 16:20:31;;;;;;;1.37;0.90;;;;;;;30.41;20.50;100843.97;18459933;32;20207;-56
2022/08/10 16:30:41;;;;;;;2.90;0.90;;;;;;;30.53;20.54;100845.69;18462454;32;20539;-56
2022/08/10 16:40:46;;;;;;;2.67;1.12;;;;;;;30.30;20.81;100843.00;18486505;32;20136;-56
2022/08/10 16:50:54;;;;;;;2.80;1.00;;;;;;;30.44;21.58;100841.03;18482566;32;20115;-56
2022/08/10 17:01:01;;;;;;;4.43;1.02;;;;;;;30.49;21.12;100837.97;18460490;32;20115;-55
2022/08/10 17:11:06;;;;;;;2.42;1.00;;;;;;;30.32;22.62;100848.28;18455221;32;20466;-56
2022/08/10 17:21:20;;;;;;;1.40;0.70;;;;;;;29.24;22.67;100860.84;18467992;32;20162;-56
2022/08/10 17:31:29;;;;;;;3.78;0.80;;;;;;;29.92;22.32;100860.28;18499897;32;20104;-56
2022/08/10 17:41:52;;;;;;;2.55;0.80;;;;;;;29.59;23.19;100868.13;18469753;32;20141;-55
2022/08/10 17:51:58;;;;;;;2.05;0.80;;;;;;;29.54;23.42;100883.75;18436027;32;20526;-56
2022/08/10 18:02:05;;;;;;;1.85;0.90;;;;;;;29.39;23.86;100887.56;18447338;32;20111;-56
2022/08/10 18:12:12;;;;;;;3.60;1.00;;;;;;;28.95;25.83;100888.03;18476869;32;20124;-56
2022/08/10 18:22:21;;;;;;;1.55;0.95;;;;;;;28.55;27.33;100894.44;18499580;32;20089;-55
2022/08/10 18:32:26;;;;;;;4.68;1.60;;;;;;;28.01;28.50;100900.78;18496797;32;20119;-55
2022/08/10 18:42:34;;;;;;;3.45;1.33;;;;;;;27.50;29.76;100911.25;18424686;32;20084;-55
2022/08/10 18:52:41;;;;;;;4.22;1.12;;;;;;;26.96;30.96;100920.09;18377342;32;20418;-55
2022/08/10 19:03:05;;;;;;;1.77;1.20;;;;;;;26.73;31.13;100935.75;18423186;32;20099;-56
2022/08/10 19:13:18;;;;;;;3.50;1.52;;;;;;;26.70;30.91;100943.97;18454222;32;20097;-55
2022/08/10 19:23:39;;;;;;;3.47;1.70;;;;;;;26.44;31.71;100952.66;18283115;32;20134;-55
2022/08/10 19:33:51;;;;;;;3.87;1.45;;;;;;;26.32;31.72;100956.06;18282117;32;20117;-55
2022/08/10 19:44:19;;;;;;;2.28;1.25;;;;;;;26.02;32.17;100963.09;18397013;32;20096;-56
2022/08/10 19:54:32;;;;;;;4.32;1.55;;;;;;;25.76;32.08;100962.84;18424755;32;20101;-55
2022/08/10 20:04:43;;;;;;;2.03;1.30;;;;;;;25.43;34.40;100969.09;18438412;32;20099;-56
2022/08/10 20:14:51;;;;;;;4.93;1.30;;;;;;;25.18;34.54;100977.62;18483954;32;20142;-55
2022/08/10 20:25:00;;;;;;;3.45;1.30;;;;;;;24.93;35.92;100979.81;18489916;32;20459;-55
2022/08/10 20:35:08;;;;;;;5.35;1.62;;;;;;;24.91;35.55;100983.50;18441357;32;20730;-55
2022/08/10 20:45:16;;;;;;;3.25;1.50;;;;;;;24.99;35.73;101002.66;18349278;32;20116;-55
2022/08/10 20:55:27;;;;;;;5.25;2.20;;;;;;;24.66;37.08;101006.13;18396971;32;20101;-55
2022/08/10 21:05:34;;;;;;;3.65;1.52;;;;;;;24.24;37.77;101017.13;18411848;32;20101;-55
2022/08/10 21:15:58;;;;;;;2.75;1.50;;;;;;;24.00;37.34;101021.84;18427820;32;20109;-55
2022/08/10 22:59:25;;;;;;;2.78;1.27;;;;;;;23.37;37.53;101015.91;18434032;32;20523;-55
2022/08/10 23:09:29;;;;;;;1.80;1.17;;;;;;;23.65;36.16;101017.28;18433090;32;20070;-56
2022/08/10 23:29:41;;;;;;;2.47;1.00;;;;;;;23.70;37.26;101020.56;18452139;32;20463;-55
2022/08/10 23:40:10;;;;;;;2.17;1.25;;;;;;;23.64;37.12;101014.66;18433021;32;20093;-55
2022/08/10 23:50:15;;;;;;;2.17;1.12;;;;;;;23.60;38.23;101010.44;18432313;32;20093;-55
